Pagina principale
METAR-TAF:

METAR-TAF

Aeroporti :

Cognac, Francia

latitudine: 45-40N, longitudine: 000-19W, altezza: 30 m

Osservazione

Il bollettino è stato emesso 26 minuti fa, alle 03:00 UTC
Vento 3 kt da ovest
Temperature 10°C
Umidità 93%
Pressione 1029 hPa
Visibilità 10 km o più
Cielo coperto ad un'altezza di 700 ft

METAR: LFBG 240300Z AUTO 26003KT 9999 OVC007 10/09 Q1029

Ora: 04:26 (03:26 UTC)


TAF: mancante

Osservazioni e previsioni meteorologiche di più di 4000 aeroporti (messaggi METAR e TAF).

Le stazioni disponibili sono rappresentate dai dischi gialli e rossi sulla carta.

Puntare il mouse per vedere il nome della stazione.

Clicca sopra per visualizzare le osservazioni e previsioni meteorologiche.

Per cambiare la mappa : fare clic sui pulsanti verdi con una croce nera per ingrandire, il pulsante verde con un trattino per diminuire, o sulla freccia verde per le mappe adiacenti.


METAR-TAF: